createdAt,value
2018-06-17T00:01:09.253Z,15.80
2018-06-17T00:03:37.659Z,15.80
2018-06-17T00:06:06.091Z,15.80
2018-06-17T00:08:34.593Z,15.70
2018-06-17T00:11:03.048Z,15.70
2018-06-17T00:13:31.553Z,15.60
2018-06-17T00:15:59.972Z,15.50
2018-06-17T00:18:28.390Z,15.50
2018-06-17T00:20:56.932Z,15.50
2018-06-17T00:23:25.366Z,15.40
2018-06-17T00:25:53.750Z,15.40
2018-06-17T00:28:22.197Z,15.40
2018-06-17T00:30:50.592Z,15.40
2018-06-17T00:33:18.991Z,15.40
2018-06-17T00:35:47.538Z,15.40
2018-06-17T00:38:15.937Z,15.50
2018-06-17T00:40:44.408Z,15.40
2018-06-17T00:43:12.883Z,15.40
2018-06-17T00:45:41.261Z,15.50
2018-06-17T00:48:09.775Z,15.40
2018-06-17T00:50:38.195Z,15.40
2018-06-17T00:53:06.581Z,15.30
2018-06-17T00:55:35.351Z,15.30
2018-06-17T00:58:03.801Z,15.30
2018-06-17T01:00:32.247Z,15.30
2018-06-17T01:03:00.676Z,15.20
2018-06-17T01:05:29.096Z,15.20
2018-06-17T01:07:57.520Z,15.20
2018-06-17T01:10:25.927Z,15.20
2018-06-17T01:12:55.043Z,15.20
2018-06-17T01:15:23.444Z,15.10
2018-06-17T01:17:51.940Z,15.10
2018-06-17T01:20:20.332Z,15.10
2018-06-17T01:22:48.727Z,15.10
2018-06-17T01:25:17.228Z,15.00
2018-06-17T01:27:45.746Z,15.00
2018-06-17T01:30:14.120Z,15.00
2018-06-17T01:32:42.551Z,15.00
2018-06-17T01:37:39.037Z,15.10
2018-06-17T01:40:07.514Z,15.10
2018-06-17T01:42:35.932Z,15.10
2018-06-17T01:45:04.431Z,15.00
2018-06-17T01:47:32.852Z,15.00
2018-06-17T01:50:01.271Z,15.00
2018-06-17T01:52:29.664Z,14.90
2018-06-17T01:54:58.149Z,14.90
2018-06-17T01:57:26.653Z,14.90
2018-06-17T01:59:55.085Z,14.90
2018-06-17T02:02:23.499Z,14.90
2018-06-17T02:04:57.323Z,14.90
2018-06-17T02:07:31.142Z,14.90
2018-06-17T02:10:05.459Z,14.80
2018-06-17T02:12:33.842Z,14.80
2018-06-17T02:15:02.420Z,14.80
2018-06-17T02:17:30.796Z,14.80
2018-06-17T02:19:59.268Z,14.80
2018-06-17T02:22:27.646Z,14.70
2018-06-17T02:24:56.066Z,14.70
2018-06-17T02:27:24.457Z,14.70
2018-06-17T02:32:21.132Z,14.60
2018-06-17T02:34:49.570Z,14.60
2018-06-17T02:37:18.016Z,14.60
2018-06-17T02:39:46.465Z,14.50
2018-06-17T02:42:14.962Z,14.50
2018-06-17T02:44:43.353Z,14.50
2018-06-17T02:47:17.666Z,14.40
2018-06-17T02:49:48.313Z,14.40
2018-06-17T02:52:22.226Z,14.40
2018-06-17T02:54:50.649Z,14.30
2018-06-17T02:57:20.003Z,14.30
2018-06-17T02:59:48.588Z,14.30
2018-06-17T03:07:13.673Z,14.20
2018-06-17T03:09:42.190Z,14.20
2018-06-17T03:12:10.616Z,14.20
2018-06-17T03:14:39.185Z,14.20
2018-06-17T03:17:07.588Z,14.10
2018-06-17T03:22:04.227Z,14.10
2018-06-17T03:24:38.071Z,14.10
2018-06-17T03:27:11.944Z,14.10
2018-06-17T03:29:45.632Z,14.10
2018-06-17T03:32:19.332Z,14.10
2018-06-17T03:34:52.498Z,14.00
2018-06-17T03:37:21.008Z,14.00
2018-06-17T03:39:49.436Z,14.00
2018-06-17T03:42:17.922Z,14.00
2018-06-17T03:44:46.305Z,14.00
2018-06-17T03:47:14.726Z,14.10
2018-06-17T03:49:43.125Z,14.10
2018-06-17T03:52:11.586Z,14.10
2018-06-17T03:54:40.023Z,14.10
2018-06-17T03:57:08.484Z,14.20
2018-06-17T03:59:37.026Z,14.20
2018-06-17T04:02:05.464Z,14.30
2018-06-17T04:04:39.296Z,14.30
2018-06-17T04:07:07.734Z,14.40
2018-06-17T04:09:36.247Z,14.40
2018-06-17T04:12:04.649Z,14.50
2018-06-17T04:14:33.157Z,14.60
2018-06-17T04:17:05.793Z,14.70
2018-06-17T04:19:34.177Z,14.80
2018-06-17T04:22:02.656Z,14.90
2018-06-17T04:24:31.058Z,14.90
2018-06-17T04:26:59.477Z,15.00
2018-06-17T04:29:27.939Z,15.10
2018-06-17T04:31:56.360Z,15.20
2018-06-17T04:34:24.908Z,15.30
2018-06-17T04:36:53.296Z,15.40
2018-06-17T04:39:21.708Z,15.50
2018-06-17T04:41:50.705Z,15.50
2018-06-17T04:44:19.238Z,15.50
2018-06-17T04:46:48.036Z,15.60
2018-06-17T04:49:16.614Z,15.70
2018-06-17T04:51:45.044Z,15.60
2018-06-17T04:54:13.527Z,15.60
2018-06-17T04:56:41.932Z,15.70
2018-06-17T04:59:10.466Z,15.70
2018-06-17T05:01:39.501Z,15.70
2018-06-17T05:04:07.902Z,15.80
2018-06-17T05:06:36.321Z,15.80
2018-06-17T05:09:07.418Z,15.90
2018-06-17T05:11:35.824Z,16.00
2018-06-17T05:14:04.261Z,16.00
2018-06-17T05:16:33.037Z,16.20
2018-06-17T05:19:01.482Z,16.30
2018-06-17T05:21:30.457Z,16.40
2018-06-17T05:23:58.917Z,16.50
2018-06-17T05:26:27.799Z,16.60
2018-06-17T05:28:56.351Z,16.70
2018-06-17T05:31:24.877Z,16.80
2018-06-17T05:36:21.485Z,16.80
2018-06-17T05:38:49.931Z,16.80
2018-06-17T05:41:18.376Z,16.80
2018-06-17T05:43:47.499Z,16.80
2018-06-17T05:46:15.956Z,16.80
2018-06-17T05:48:44.339Z,16.80
2018-06-17T05:51:12.737Z,16.80
2018-06-17T05:53:41.172Z,16.80
2018-06-17T05:56:09.575Z,16.80
2018-06-17T05:58:38.060Z,16.90
2018-06-17T06:01:06.505Z,16.90
2018-06-17T06:03:34.920Z,16.90
2018-06-17T06:06:03.475Z,16.90
2018-06-17T06:08:31.937Z,16.90
2018-06-17T06:11:00.428Z,17.00
2018-06-17T06:13:29.022Z,17.00
2018-06-17T06:15:57.514Z,16.90
2018-06-17T06:18:26.229Z,16.90
2018-06-17T06:20:54.724Z,16.90
2018-06-17T06:23:23.393Z,17.00
2018-06-17T06:25:51.738Z,17.00
2018-06-17T06:28:20.161Z,17.00
2018-06-17T06:30:48.551Z,17.20
2018-06-17T06:33:16.973Z,17.30
2018-06-17T06:35:45.511Z,17.50
2018-06-17T06:38:13.934Z,17.70
2018-06-17T06:40:42.426Z,17.90
2018-06-17T06:43:11.194Z,18.10
2018-06-17T06:45:39.729Z,18.30
2018-06-17T06:48:08.140Z,18.50
2018-06-17T06:50:36.689Z,18.70
2018-06-17T06:53:05.332Z,18.80
2018-06-17T06:55:34.626Z,19.00
2018-06-17T06:58:03.092Z,19.20
2018-06-17T07:00:31.538Z,19.30
2018-06-17T07:03:11.344Z,19.50
2018-06-17T07:05:50.885Z,19.60
2018-06-17T07:08:30.457Z,19.70
2018-06-17T07:10:58.978Z,19.80
2018-06-17T07:13:27.457Z,19.90
2018-06-17T07:16:07.133Z,20.10
2018-06-17T07:18:37.884Z,20.20
2018-06-17T07:21:06.728Z,20.30
2018-06-17T07:23:35.254Z,20.40
2018-06-17T07:26:47.809Z,20.50
2018-06-17T07:29:28.810Z,20.60
2018-06-17T07:31:57.389Z,20.80
2018-06-17T07:34:26.117Z,20.90
2018-06-17T07:36:54.539Z,20.90
2018-06-17T07:41:36.414Z,21.10
2018-06-17T07:44:04.847Z,21.20
2018-06-17T07:46:33.349Z,21.30
2018-06-17T07:49:41.853Z,21.40
2018-06-17T07:52:22.135Z,21.60
2018-06-17T07:54:50.705Z,21.80
2018-06-17T07:57:20.453Z,21.90
2018-06-17T07:59:49.108Z,22.00
2018-06-17T08:04:45.948Z,22.40
2018-06-17T08:07:14.344Z,22.40
2018-06-17T08:09:42.880Z,22.50
2018-06-17T08:12:12.150Z,22.50
2018-06-17T08:14:41.086Z,22.50
2018-06-17T08:17:09.532Z,22.50
2018-06-17T08:19:38.113Z,22.60
2018-06-17T08:22:06.554Z,22.70
2018-06-17T08:24:35.509Z,22.70
2018-06-17T08:27:04.129Z,22.80
2018-06-17T08:29:32.713Z,22.80
2018-06-17T08:32:01.238Z,22.90
2018-06-17T08:34:29.691Z,23.00
2018-06-17T08:36:58.960Z,23.00
2018-06-17T08:41:55.601Z,23.10
2018-06-17T08:44:24.141Z,23.20
2018-06-17T08:46:52.795Z,23.30
2018-06-17T08:49:21.685Z,23.40
2018-06-17T08:51:50.114Z,23.50
2018-06-17T08:54:18.621Z,23.50
2018-06-17T08:56:47.163Z,23.50
2018-06-17T08:59:15.689Z,23.50
2018-06-17T09:01:44.317Z,23.40
2018-06-17T09:04:12.776Z,23.30
2018-06-17T09:06:41.382Z,23.20
2018-06-17T09:09:11.542Z,23.20
2018-06-17T09:11:39.963Z,23.20
2018-06-17T09:14:08.478Z,23.20
2018-06-17T09:16:37.636Z,23.20
2018-06-17T09:19:06.130Z,23.20
2018-06-17T09:21:34.632Z,23.40
2018-06-17T09:24:03.101Z,23.40
2018-06-17T09:26:31.687Z,23.40
2018-06-17T09:29:00.208Z,23.50
2018-06-17T09:31:28.779Z,23.80
2018-06-17T09:33:57.279Z,23.90
2018-06-17T09:36:26.765Z,24.10
2018-06-17T09:38:55.168Z,24.00
2018-06-17T09:41:23.592Z,24.00
2018-06-17T09:43:52.183Z,24.10
2018-06-17T09:46:20.647Z,24.40
2018-06-17T09:51:17.409Z,24.50
2018-06-17T09:53:45.894Z,24.50
2018-06-17T09:56:14.371Z,24.50
2018-06-17T09:58:42.813Z,24.60
2018-06-17T10:01:11.347Z,24.70
2018-06-17T10:03:39.831Z,24.90
2018-06-17T10:06:08.686Z,25.00
2018-06-17T10:08:37.265Z,25.10
2018-06-17T10:11:07.463Z,25.10
2018-06-17T10:13:50.768Z,25.10
2018-06-17T10:16:19.252Z,25.10
2018-06-17T10:18:47.717Z,25.00
2018-06-17T10:21:16.176Z,24.90
2018-06-17T10:23:44.702Z,24.90
2018-06-17T10:26:13.130Z,25.10
2018-06-17T10:28:41.636Z,25.10
2018-06-17T10:31:10.155Z,25.20
2018-06-17T10:33:38.757Z,25.30
2018-06-17T10:38:35.430Z,25.20
2018-06-17T10:43:32.805Z,25.40
2018-06-17T10:46:01.271Z,25.50
2018-06-17T10:48:29.718Z,25.50
2018-06-17T10:50:58.343Z,25.70
2018-06-17T10:53:26.780Z,25.50
2018-06-17T10:55:55.317Z,25.30
2018-06-17T10:58:23.684Z,25.30
2018-06-17T11:00:52.120Z,25.50
2018-06-17T11:03:20.580Z,25.60
2018-06-17T11:05:49.108Z,25.80
2018-06-17T11:08:17.610Z,25.70
2018-06-17T11:10:46.061Z,25.70
2018-06-17T11:13:14.629Z,25.90
2018-06-17T11:15:43.084Z,26.10
2018-06-17T11:18:11.559Z,26.20
2018-06-17T11:20:39.977Z,26.20
2018-06-17T11:23:09.336Z,26.20
2018-06-17T11:25:37.766Z,26.20
2018-06-17T11:28:06.432Z,25.90
2018-06-17T11:30:35.132Z,25.60
2018-06-17T11:33:03.582Z,25.70
2018-06-17T11:35:32.108Z,25.70
2018-06-17T11:38:00.542Z,25.70
2018-06-17T11:40:28.966Z,25.60
2018-06-17T11:42:57.557Z,25.50
2018-06-17T11:45:25.978Z,25.40
2018-06-17T11:50:23.650Z,25.60
2018-06-17T11:52:52.245Z,25.70
2018-06-17T11:55:20.718Z,25.70
2018-06-17T11:57:49.176Z,25.80
2018-06-17T12:00:17.679Z,25.80
2018-06-17T12:02:46.103Z,25.80
2018-06-17T12:05:14.701Z,25.80
2018-06-17T12:07:43.225Z,25.70
2018-06-17T12:10:11.647Z,25.60
2018-06-17T12:15:08.286Z,25.50
2018-06-17T12:17:36.798Z,25.50
2018-06-17T12:22:33.467Z,25.30
2018-06-17T12:25:01.866Z,25.30
2018-06-17T12:27:30.422Z,25.40
2018-06-17T12:29:58.834Z,25.30
2018-06-17T12:32:27.242Z,25.30
2018-06-17T12:34:55.736Z,25.40
2018-06-17T12:37:24.172Z,25.60
2018-06-17T12:42:20.688Z,25.70
2018-06-17T12:44:49.146Z,25.70
2018-06-17T12:47:18.570Z,25.40
2018-06-17T12:49:46.997Z,25.20
2018-06-17T12:52:15.453Z,25.10
2018-06-17T12:54:43.805Z,25.10
2018-06-17T12:57:12.329Z,25.20
2018-06-17T12:59:40.691Z,25.20
2018-06-17T13:02:09.179Z,25.20
2018-06-17T13:04:37.688Z,25.20
2018-06-17T13:07:06.402Z,25.30
2018-06-17T13:09:34.930Z,25.40
2018-06-17T13:12:03.522Z,25.40
2018-06-17T13:14:31.978Z,25.30
2018-06-17T13:19:28.698Z,25.30
2018-06-17T13:21:57.142Z,25.30
2018-06-17T13:24:25.569Z,25.60
2018-06-17T13:26:53.994Z,25.70
2018-06-17T13:29:22.484Z,25.70
2018-06-17T13:31:50.940Z,25.70
2018-06-17T13:34:19.282Z,25.60
2018-06-17T13:36:47.814Z,25.60
2018-06-17T13:39:16.242Z,25.30
2018-06-17T13:41:44.698Z,25.30
2018-06-17T13:44:13.268Z,25.40
2018-06-17T13:46:41.694Z,25.50
2018-06-17T13:49:10.228Z,25.70
2018-06-17T13:51:39.330Z,25.70
2018-06-17T13:54:07.886Z,25.70
2018-06-17T13:56:36.300Z,25.60
2018-06-17T13:59:04.794Z,25.70
2018-06-17T14:01:33.225Z,25.70
2018-06-17T14:04:01.791Z,25.50
2018-06-17T14:06:30.346Z,25.40
2018-06-17T14:08:59.363Z,25.30
2018-06-17T14:13:56.506Z,25.30
2018-06-17T14:16:24.965Z,25.30
2018-06-17T14:18:53.644Z,25.30
2018-06-17T14:21:22.124Z,25.20
2018-06-17T14:23:50.483Z,25.10
2018-06-17T14:26:18.966Z,25.10
2018-06-17T14:31:15.747Z,25.20
2018-06-17T14:33:44.221Z,25.30
2018-06-17T14:36:12.750Z,25.40
2018-06-17T14:38:41.316Z,25.50
2018-06-17T14:41:15.155Z,25.50
2018-06-17T14:43:49.005Z,25.60
2018-06-17T14:46:22.983Z,25.60
2018-06-17T14:48:56.712Z,25.70
2018-06-17T14:51:30.672Z,25.60
2018-06-17T14:53:59.194Z,25.50
2018-06-17T14:56:28.146Z,25.50
2018-06-17T14:58:56.592Z,25.50
2018-06-17T15:01:25.007Z,25.40
2018-06-17T15:03:53.487Z,25.20
2018-06-17T15:06:21.915Z,25.10
2018-06-17T15:08:50.480Z,25.10
2018-06-17T15:11:19.063Z,25.00
2018-06-17T15:13:47.620Z,25.00
2018-06-17T15:18:44.249Z,24.90
2018-06-17T15:21:12.710Z,24.90
2018-06-17T15:23:41.158Z,25.00
2018-06-17T15:26:09.601Z,24.90
2018-06-17T15:28:38.092Z,24.90
2018-06-17T15:31:11.896Z,24.80
2018-06-17T15:33:45.740Z,24.80
2018-06-17T15:41:28.966Z,24.70
2018-06-17T15:43:58.436Z,24.70
2018-06-17T15:46:27.717Z,24.70
2018-06-17T15:48:56.625Z,24.70
2018-06-17T15:51:25.196Z,24.70
2018-06-17T15:53:53.660Z,24.70
2018-06-17T15:56:22.110Z,24.50
2018-06-17T15:58:50.614Z,24.40
2018-06-17T16:01:19.354Z,24.40
2018-06-17T16:03:47.867Z,24.40
2018-06-17T16:06:16.322Z,24.50
2018-06-17T16:11:13.151Z,24.60
2018-06-17T16:13:46.961Z,24.60
2018-06-17T16:16:20.648Z,24.40
2018-06-17T16:18:54.519Z,24.40
2018-06-17T16:21:23.061Z,24.30
2018-06-17T16:23:51.507Z,24.20
2018-06-17T16:26:19.920Z,24.20
2018-06-17T16:28:48.444Z,24.20
2018-06-17T16:33:45.011Z,24.20
2018-06-17T16:36:13.545Z,24.20
2018-06-17T16:38:41.987Z,24.10
2018-06-17T16:43:38.644Z,24.00
2018-06-17T16:46:07.083Z,23.90
2018-06-17T16:48:35.580Z,23.80
2018-06-17T16:51:09.338Z,23.80
2018-06-17T16:53:43.768Z,23.70
2018-06-17T16:56:17.424Z,23.70
2018-06-17T16:58:51.354Z,23.60
2018-06-17T17:03:47.968Z,23.40
2018-06-17T17:06:16.445Z,23.30
2018-06-17T17:08:44.909Z,23.10
2018-06-17T17:11:13.348Z,23.00
2018-06-17T17:13:43.340Z,23.00
2018-06-17T17:16:11.864Z,22.90
2018-06-17T17:18:40.297Z,22.80
2018-06-17T17:21:08.848Z,22.60
2018-06-17T17:26:05.831Z,22.40
2018-06-17T17:31:03.967Z,22.30
2018-06-17T17:33:37.816Z,22.20
2018-06-17T17:38:45.444Z,22.10
2018-06-17T17:41:14.570Z,22.20
2018-06-17T17:43:43.143Z,22.10
2018-06-17T17:47:17.622Z,22.10
2018-06-17T17:54:42.775Z,22.00
2018-06-17T17:57:11.554Z,22.00
2018-06-17T18:02:08.562Z,21.90
2018-06-17T18:04:37.106Z,21.90
2018-06-17T18:07:06.042Z,21.80
2018-06-17T18:09:35.519Z,21.80
2018-06-17T18:12:04.457Z,21.60
2018-06-17T18:14:33.113Z,21.50
2018-06-17T18:19:31.190Z,21.50
2018-06-17T18:22:00.053Z,21.50
2018-06-17T18:24:28.866Z,21.40
2018-06-17T18:27:02.719Z,21.40
2018-06-17T18:29:36.606Z,21.40
2018-06-17T18:32:10.766Z,21.30
2018-06-17T18:34:44.563Z,21.20
2018-06-17T18:37:13.463Z,20.80
2018-06-17T18:39:42.431Z,20.60
2018-06-17T18:42:11.603Z,20.50
2018-06-17T18:44:41.131Z,20.40
2018-06-17T18:47:10.303Z,20.20
2018-06-17T18:49:40.103Z,20.00
2018-06-17T18:52:08.893Z,19.70
2018-06-17T18:54:38.811Z,19.30
2018-06-17T18:57:10.350Z,19.10
2018-06-17T18:59:40.758Z,18.80
2018-06-17T19:02:10.248Z,18.60
2018-06-17T19:04:39.230Z,18.40
2018-06-17T19:07:08.887Z,18.30
2018-06-17T19:09:43.014Z,18.20
2018-06-17T19:12:18.307Z,18.00
2018-06-17T19:14:52.406Z,17.90
2018-06-17T19:17:26.636Z,17.80
2018-06-17T19:22:24.224Z,17.60
2018-06-17T19:24:53.242Z,17.60
2018-06-17T19:27:22.555Z,17.40
2018-06-17T19:29:51.791Z,17.30
2018-06-17T19:32:25.512Z,17.20
2018-06-17T19:34:55.391Z,17.20
2018-06-17T19:37:24.529Z,17.10
2018-06-17T19:39:54.183Z,16.90
2018-06-17T19:44:52.100Z,16.70
2018-06-17T19:47:21.146Z,16.70
2018-06-17T19:49:55.181Z,16.70
2018-06-17T19:52:29.066Z,16.70
2018-06-17T19:55:02.933Z,16.60
2018-06-17T19:57:37.992Z,16.60
2018-06-17T20:00:12.045Z,16.60
2018-06-17T20:02:40.992Z,16.60
2018-06-17T20:05:10.077Z,16.60
2018-06-17T20:07:40.212Z,16.60
2018-06-17T20:10:09.417Z,16.60
2018-06-17T20:12:38.267Z,16.50
2018-06-17T20:15:08.038Z,16.50
2018-06-17T20:17:36.754Z,16.50
2018-06-17T20:20:05.424Z,16.50
2018-06-17T20:22:34.182Z,16.60
2018-06-17T20:25:03.947Z,16.50
2018-06-17T20:27:32.559Z,16.50
2018-06-17T20:30:01.576Z,16.60
2018-06-17T20:32:35.433Z,16.60
2018-06-17T20:35:09.434Z,16.70
2018-06-17T20:37:43.460Z,16.60
2018-06-17T20:40:17.341Z,16.70
2018-06-17T20:42:51.190Z,16.70
2018-06-17T20:45:19.912Z,16.70
2018-06-17T20:47:48.570Z,16.50
2018-06-17T20:52:46.090Z,16.40
2018-06-17T20:55:14.649Z,16.40
2018-06-17T20:57:44.310Z,16.40
2018-06-17T21:00:12.914Z,16.40
2018-06-17T21:02:41.454Z,16.40
2018-06-17T21:05:09.976Z,16.40
2018-06-17T21:07:38.856Z,16.40
2018-06-17T21:10:07.518Z,16.30
2018-06-17T21:12:36.116Z,16.30
2018-06-17T21:15:21.091Z,16.30
2018-06-17T21:17:50.855Z,16.30
2018-06-17T21:20:24.705Z,16.30
2018-06-17T21:22:58.475Z,16.30
2018-06-17T21:28:01.577Z,16.20
2018-06-17T21:30:30.010Z,16.30
2018-06-17T21:32:58.481Z,16.20
2018-06-17T21:35:26.931Z,16.20
2018-06-17T21:37:55.301Z,16.20
2018-06-17T21:40:23.741Z,16.10
2018-06-17T21:42:52.183Z,16.20
2018-06-17T21:45:20.588Z,16.20
2018-06-17T21:50:17.796Z,16.20
2018-06-17T21:52:46.251Z,16.10
2018-06-17T21:55:14.656Z,16.10
2018-06-17T21:57:43.085Z,16.20
2018-06-17T22:00:11.524Z,16.20
2018-06-17T22:02:41.994Z,16.20
2018-06-17T22:05:10.617Z,16.20
2018-06-17T22:07:44.537Z,16.10
2018-06-17T22:10:18.355Z,16.10
2018-06-17T22:12:52.098Z,16.10
2018-06-17T22:15:26.008Z,16.10
2018-06-17T22:17:55.471Z,16.20
2018-06-17T22:20:24.016Z,16.20
2018-06-17T22:22:52.451Z,16.20
2018-06-17T22:25:20.980Z,16.20
2018-06-17T22:27:49.421Z,16.20
2018-06-17T22:30:18.087Z,16.20
2018-06-17T22:32:47.142Z,16.20
2018-06-17T22:35:15.580Z,16.20
2018-06-17T22:37:43.985Z,16.20
2018-06-17T22:40:12.574Z,16.00
2018-06-17T22:42:40.972Z,16.00
2018-06-17T22:45:09.461Z,16.00
2018-06-17T22:47:43.292Z,16.00
2018-06-17T22:50:11.794Z,16.00
2018-06-17T22:52:52.297Z,16.00
2018-06-17T22:55:20.756Z,16.00
2018-06-17T23:01:32.004Z,16.00
2018-06-17T23:04:05.820Z,16.00
2018-06-17T23:06:39.534Z,16.00
2018-06-17T23:09:13.860Z,16.00
2018-06-17T23:11:43.252Z,16.00
2018-06-17T23:14:12.549Z,16.00
2018-06-17T23:16:41.049Z,15.90
2018-06-17T23:19:09.479Z,16.00
2018-06-17T23:21:37.859Z,16.00
2018-06-17T23:24:07.270Z,16.00
2018-06-17T23:26:35.685Z,16.00
2018-06-17T23:29:04.076Z,15.90
2018-06-17T23:31:32.542Z,15.90
2018-06-17T23:34:01.070Z,15.90
2018-06-17T23:36:29.505Z,15.90
2018-06-17T23:38:57.889Z,15.90
2018-06-17T23:41:26.335Z,15.80
2018-06-17T23:43:54.751Z,15.80
2018-06-17T23:46:28.477Z,15.90
2018-06-17T23:49:02.284Z,15.80
2018-06-17T23:51:36.083Z,15.80
2018-06-17T23:54:09.906Z,15.80
2018-06-17T23:56:38.344Z,15.80
2018-06-17T23:59:06.756Z,15.90
